sensor_id;sensor_type;location;lat;lon;timestamp;P1;durP1;ratioP1;P2;durP2;ratioP2
75634;SDS011;64227;48.724;9.104;2024-02-23T00:01:52;0.00;;;0.00;;
75634;SDS011;64227;48.724;9.104;2024-02-23T00:04:18;0.00;;;0.00;;
75634;SDS011;64227;48.724;9.104;2024-02-23T00:06:46;0.00;;;0.00;;
75634;SDS011;64227;48.724;9.104;2024-02-23T00:09:11;0.00;;;0.00;;
75634;SDS011;64227;48.724;9.104;2024-02-23T00:11:40;0.50;;;0.00;;
75634;SDS011;64227;48.724;9.104;2024-02-23T00:14:09;0.13;;;0.00;;
75634;SDS011;64227;48.724;9.104;2024-02-23T00:16:38;0.88;;;0.00;;
75634;SDS011;64227;48.724;9.104;2024-02-23T00:19:05;0.00;;;0.00;;
75634;SDS011;64227;48.724;9.104;2024-02-23T00:21:32;0.52;;;0.10;;
75634;SDS011;64227;48.724;9.104;2024-02-23T00:23:57;0.00;;;0.00;;
75634;SDS011;64227;48.724;9.104;2024-02-23T00:26:23;0.00;;;0.00;;
75634;SDS011;64227;48.724;9.104;2024-02-23T00:28:48;0.10;;;0.05;;
75634;SDS011;64227;48.724;9.104;2024-02-23T00:31:13;1.00;;;0.10;;
75634;SDS011;64227;48.724;9.104;2024-02-23T00:33:39;0.47;;;0.13;;
75634;SDS011;64227;48.724;9.104;2024-02-23T00:36:07;0.28;;;0.10;;
75634;SDS011;64227;48.724;9.104;2024-02-23T00:38:32;0.90;;;0.10;;
75634;SDS011;64227;48.724;9.104;2024-02-23T00:40:58;0.13;;;0.10;;
75634;SDS011;64227;48.724;9.104;2024-02-23T00:43:23;0.15;;;0.10;;
75634;SDS011;64227;48.724;9.104;2024-02-23T00:45:48;0.10;;;0.00;;
75634;SDS011;64227;48.724;9.104;2024-02-23T00:48:14;0.30;;;0.10;;
75634;SDS011;64227;48.724;9.104;2024-02-23T00:50:39;1.08;;;0.20;;
75634;SDS011;64227;48.724;9.104;2024-02-23T00:53:04;0.10;;;0.10;;
75634;SDS011;64227;48.724;9.104;2024-02-23T00:55:30;0.00;;;0.00;;
75634;SDS011;64227;48.724;9.104;2024-02-23T00:57:55;0.20;;;0.20;;
75634;SDS011;64227;48.724;9.104;2024-02-23T01:00:21;0.40;;;0.10;;
75634;SDS011;64227;48.724;9.104;2024-02-23T01:02:46;1.15;;;0.13;;
75634;SDS011;64227;48.724;9.104;2024-02-23T01:05:12;0.20;;;0.13;;
75634;SDS011;64227;48.724;9.104;2024-02-23T01:07:38;0.13;;;0.03;;
75634;SDS011;64227;48.724;9.104;2024-02-23T01:10:03;0.32;;;0.20;;
75634;SDS011;64227;48.724;9.104;2024-02-23T01:12:29;2.40;;;0.15;;
75634;SDS011;64227;48.724;9.104;2024-02-23T01:14:54;1.80;;;0.20;;
75634;SDS011;64227;48.724;9.104;2024-02-23T01:17:20;0.73;;;0.17;;
75634;SDS011;64227;48.724;9.104;2024-02-23T01:19:45;1.35;;;0.10;;
75634;SDS011;64227;48.724;9.104;2024-02-23T01:22:10;0.20;;;0.20;;
75634;SDS011;64227;48.724;9.104;2024-02-23T01:24:36;1.52;;;0.13;;
75634;SDS011;64227;48.724;9.104;2024-02-23T01:27:01;2.45;;;0.30;;
75634;SDS011;64227;48.724;9.104;2024-02-23T01:29:26;2.28;;;0.38;;
75634;SDS011;64227;48.724;9.104;2024-02-23T01:31:52;2.20;;;0.30;;
75634;SDS011;64227;48.724;9.104;2024-02-23T01:34:19;0.10;;;0.10;;
75634;SDS011;64227;48.724;9.104;2024-02-23T01:36:45;0.13;;;0.13;;
75634;SDS011;64227;48.724;9.104;2024-02-23T01:39:10;0.35;;;0.20;;
75634;SDS011;64227;48.724;9.104;2024-02-23T01:41:36;0.30;;;0.10;;
75634;SDS011;64227;48.724;9.104;2024-02-23T01:44:01;0.10;;;0.10;;
75634;SDS011;64227;48.724;9.104;2024-02-23T01:46:26;0.30;;;0.20;;
75634;SDS011;64227;48.724;9.104;2024-02-23T01:48:52;0.22;;;0.05;;
75634;SDS011;64227;48.724;9.104;2024-02-23T01:51:17;0.28;;;0.10;;
75634;SDS011;64227;48.724;9.104;2024-02-23T01:53:43;0.85;;;0.10;;
75634;SDS011;64227;48.724;9.104;2024-02-23T01:56:08;1.27;;;0.30;;
75634;SDS011;64227;48.724;9.104;2024-02-23T01:58:35;0.63;;;0.20;;
75634;SDS011;64227;48.724;9.104;2024-02-23T02:01:00;0.80;;;0.28;;
75634;SDS011;64227;48.724;9.104;2024-02-23T02:03:26;0.35;;;0.10;;
75634;SDS011;64227;48.724;9.104;2024-02-23T02:05:51;1.52;;;0.15;;
75634;SDS011;64227;48.724;9.104;2024-02-23T02:08:18;1.33;;;0.35;;
75634;SDS011;64227;48.724;9.104;2024-02-23T02:10:43;0.82;;;0.40;;
75634;SDS011;64227;48.724;9.104;2024-02-23T02:13:10;1.17;;;0.10;;
75634;SDS011;64227;48.724;9.104;2024-02-23T02:15:35;1.10;;;0.30;;
75634;SDS011;64227;48.724;9.104;2024-02-23T02:18:01;1.88;;;0.57;;
75634;SDS011;64227;48.724;9.104;2024-02-23T02:20:26;0.30;;;0.20;;
75634;SDS011;64227;48.724;9.104;2024-02-23T02:22:53;0.70;;;0.22;;
75634;SDS011;64227;48.724;9.104;2024-02-23T02:25:18;1.42;;;0.50;;
75634;SDS011;64227;48.724;9.104;2024-02-23T02:27:44;2.42;;;0.38;;
75634;SDS011;64227;48.724;9.104;2024-02-23T02:30:10;2.38;;;0.40;;
75634;SDS011;64227;48.724;9.104;2024-02-23T02:32:36;1.73;;;0.40;;
75634;SDS011;64227;48.724;9.104;2024-02-23T02:35:02;0.10;;;0.10;;
75634;SDS011;64227;48.724;9.104;2024-02-23T02:37:27;0.32;;;0.00;;
75634;SDS011;64227;48.724;9.104;2024-02-23T02:39:53;0.30;;;0.20;;
75634;SDS011;64227;48.724;9.104;2024-02-23T02:42:18;1.52;;;0.35;;
75634;SDS011;64227;48.724;9.104;2024-02-23T02:44:43;0.85;;;0.17;;
75634;SDS011;64227;48.724;9.104;2024-02-23T02:47:08;1.77;;;0.28;;
75634;SDS011;64227;48.724;9.104;2024-02-23T02:49:34;0.20;;;0.10;;
75634;SDS011;64227;48.724;9.104;2024-02-23T02:51:59;2.08;;;0.50;;
75634;SDS011;64227;48.724;9.104;2024-02-23T02:54:24;0.40;;;0.20;;
75634;SDS011;64227;48.724;9.104;2024-02-23T02:56:50;0.43;;;0.20;;
75634;SDS011;64227;48.724;9.104;2024-02-23T02:59:16;3.60;;;0.50;;
75634;SDS011;64227;48.724;9.104;2024-02-23T03:01:41;1.35;;;0.40;;
75634;SDS011;64227;48.724;9.104;2024-02-23T03:04:08;0.50;;;0.17;;
75634;SDS011;64227;48.724;9.104;2024-02-23T03:06:33;1.35;;;0.28;;
75634;SDS011;64227;48.724;9.104;2024-02-23T03:08:58;0.47;;;0.30;;
75634;SDS011;64227;48.724;9.104;2024-02-23T03:11:24;0.43;;;0.20;;
75634;SDS011;64227;48.724;9.104;2024-02-23T03:13:49;1.73;;;0.20;;
75634;SDS011;64227;48.724;9.104;2024-02-23T03:16:15;0.63;;;0.22;;
75634;SDS011;64227;48.724;9.104;2024-02-23T03:18:45;1.15;;;0.17;;
75634;SDS011;64227;48.724;9.104;2024-02-23T03:21:10;0.90;;;0.22;;
75634;SDS011;64227;48.724;9.104;2024-02-23T03:23:36;0.20;;;0.20;;
75634;SDS011;64227;48.724;9.104;2024-02-23T03:26:01;0.95;;;0.20;;
75634;SDS011;64227;48.724;9.104;2024-02-23T03:28:27;0.22;;;0.20;;
75634;SDS011;64227;48.724;9.104;2024-02-23T03:30:52;1.48;;;0.35;;
75634;SDS011;64227;48.724;9.104;2024-02-23T03:33:18;0.50;;;0.17;;
75634;SDS011;64227;48.724;9.104;2024-02-23T03:35:43;0.73;;;0.30;;
75634;SDS011;64227;48.724;9.104;2024-02-23T03:38:08;1.95;;;0.30;;
75634;SDS011;64227;48.724;9.104;2024-02-23T03:40:33;0.40;;;0.22;;
75634;SDS011;64227;48.724;9.104;2024-02-23T03:43:00;1.17;;;0.30;;
75634;SDS011;64227;48.724;9.104;2024-02-23T03:45:27;0.20;;;0.20;;
75634;SDS011;64227;48.724;9.104;2024-02-23T03:47:52;0.68;;;0.30;;
75634;SDS011;64227;48.724;9.104;2024-02-23T03:50:18;0.55;;;0.28;;
75634;SDS011;64227;48.724;9.104;2024-02-23T03:52:43;0.13;;;0.13;;
75634;SDS011;64227;48.724;9.104;2024-02-23T03:55:08;0.13;;;0.13;;
75634;SDS011;64227;48.724;9.104;2024-02-23T03:57:34;1.92;;;0.47;;
75634;SDS011;64227;48.724;9.104;2024-02-23T03:59:59;2.05;;;0.40;;
75634;SDS011;64227;48.724;9.104;2024-02-23T04:02:24;1.45;;;0.20;;
75634;SDS011;64227;48.724;9.104;2024-02-23T04:04:50;0.55;;;0.20;;
75634;SDS011;64227;48.724;9.104;2024-02-23T04:07:15;0.73;;;0.20;;
75634;SDS011;64227;48.724;9.104;2024-02-23T04:09:40;1.70;;;0.32;;
75634;SDS011;64227;48.724;9.104;2024-02-23T04:12:06;0.70;;;0.10;;
75634;SDS011;64227;48.724;9.104;2024-02-23T04:14:32;2.25;;;0.20;;
75634;SDS011;64227;48.724;9.104;2024-02-23T04:17:01;1.98;;;0.17;;
75634;SDS011;64227;48.724;9.104;2024-02-23T04:19:26;0.20;;;0.20;;
75634;SDS011;64227;48.724;9.104;2024-02-23T04:21:52;0.98;;;0.22;;
75634;SDS011;64227;48.724;9.104;2024-02-23T04:24:17;1.15;;;0.20;;
75634;SDS011;64227;48.724;9.104;2024-02-23T04:26:42;0.55;;;0.20;;
75634;SDS011;64227;48.724;9.104;2024-02-23T04:29:08;0.43;;;0.20;;
75634;SDS011;64227;48.724;9.104;2024-02-23T04:31:35;2.10;;;0.30;;
75634;SDS011;64227;48.724;9.104;2024-02-23T04:34:02;0.10;;;0.10;;
75634;SDS011;64227;48.724;9.104;2024-02-23T04:36:28;0.40;;;0.30;;
75634;SDS011;64227;48.724;9.104;2024-02-23T04:38:54;1.85;;;0.40;;
75634;SDS011;64227;48.724;9.104;2024-02-23T04:41:19;0.52;;;0.28;;
75634;SDS011;64227;48.724;9.104;2024-02-23T04:43:46;2.22;;;0.30;;
75634;SDS011;64227;48.724;9.104;2024-02-23T04:46:12;0.95;;;0.20;;
75634;SDS011;64227;48.724;9.104;2024-02-23T04:48:38;1.27;;;0.50;;
75634;SDS011;64227;48.724;9.104;2024-02-23T04:51:03;1.48;;;0.50;;
75634;SDS011;64227;48.724;9.104;2024-02-23T04:53:29;5.00;;;1.75;;
75634;SDS011;64227;48.724;9.104;2024-02-23T04:55:54;5.13;;;2.73;;
75634;SDS011;64227;48.724;9.104;2024-02-23T04:58:19;7.47;;;3.85;;
75634;SDS011;64227;48.724;9.104;2024-02-23T05:00:46;5.38;;;2.50;;
75634;SDS011;64227;48.724;9.104;2024-02-23T05:03:11;1.45;;;0.80;;
75634;SDS011;64227;48.724;9.104;2024-02-23T05:05:36;1.15;;;0.90;;
75634;SDS011;64227;48.724;9.104;2024-02-23T05:08:02;2.00;;;1.17;;
75634;SDS011;64227;48.724;9.104;2024-02-23T05:10:27;0.38;;;0.38;;
75634;SDS011;64227;48.724;9.104;2024-02-23T05:12:53;0.55;;;0.38;;
75634;SDS011;64227;48.724;9.104;2024-02-23T05:15:18;2.33;;;0.30;;
75634;SDS011;64227;48.724;9.104;2024-02-23T05:17:44;0.32;;;0.30;;
75634;SDS011;64227;48.724;9.104;2024-02-23T05:20:10;0.75;;;0.30;;
75634;SDS011;64227;48.724;9.104;2024-02-23T05:22:36;1.25;;;0.30;;
75634;SDS011;64227;48.724;9.104;2024-02-23T05:25:02;0.80;;;0.20;;
75634;SDS011;64227;48.724;9.104;2024-02-23T05:27:29;0.65;;;0.15;;
75634;SDS011;64227;48.724;9.104;2024-02-23T05:29:55;0.43;;;0.10;;
75634;SDS011;64227;48.724;9.104;2024-02-23T05:32:20;0.65;;;0.30;;
75634;SDS011;64227;48.724;9.104;2024-02-23T05:34:45;0.73;;;0.15;;
75634;SDS011;64227;48.724;9.104;2024-02-23T05:37:11;0.70;;;0.43;;
75634;SDS011;64227;48.724;9.104;2024-02-23T05:39:36;0.40;;;0.40;;
75634;SDS011;64227;48.724;9.104;2024-02-23T05:42:03;0.20;;;0.20;;
75634;SDS011;64227;48.724;9.104;2024-02-23T05:44:29;0.70;;;0.70;;
75634;SDS011;64227;48.724;9.104;2024-02-23T05:46:54;0.68;;;0.68;;
75634;SDS011;64227;48.724;9.104;2024-02-23T05:49:19;0.70;;;0.70;;
75634;SDS011;64227;48.724;9.104;2024-02-23T05:51:45;0.57;;;0.50;;
75634;SDS011;64227;48.724;9.104;2024-02-23T05:54:10;1.45;;;0.50;;
75634;SDS011;64227;48.724;9.104;2024-02-23T05:56:35;0.60;;;0.30;;
75634;SDS011;64227;48.724;9.104;2024-02-23T05:59:02;0.32;;;0.22;;
75634;SDS011;64227;48.724;9.104;2024-02-23T06:01:27;1.10;;;0.22;;
75634;SDS011;64227;48.724;9.104;2024-02-23T06:03:53;0.70;;;0.40;;
75634;SDS011;64227;48.724;9.104;2024-02-23T06:06:20;0.52;;;0.30;;
75634;SDS011;64227;48.724;9.104;2024-02-23T06:08:45;0.80;;;0.28;;
75634;SDS011;64227;48.724;9.104;2024-02-23T06:11:11;0.30;;;0.30;;
75634;SDS011;64227;48.724;9.104;2024-02-23T06:13:36;1.75;;;0.40;;
75634;SDS011;64227;48.724;9.104;2024-02-23T06:16:02;0.60;;;0.30;;
75634;SDS011;64227;48.724;9.104;2024-02-23T06:18:28;0.63;;;0.40;;
75634;SDS011;64227;48.724;9.104;2024-02-23T06:20:53;1.10;;;0.63;;
75634;SDS011;64227;48.724;9.104;2024-02-23T06:23:18;1.98;;;0.55;;
75634;SDS011;64227;48.724;9.104;2024-02-23T06:25:44;0.90;;;0.45;;
75634;SDS011;64227;48.724;9.104;2024-02-23T06:28:09;1.08;;;0.30;;
75634;SDS011;64227;48.724;9.104;2024-02-23T06:30:35;0.65;;;0.60;;
75634;SDS011;64227;48.724;9.104;2024-02-23T06:33:01;1.08;;;0.50;;
75634;SDS011;64227;48.724;9.104;2024-02-23T06:35:26;2.22;;;0.30;;
75634;SDS011;64227;48.724;9.104;2024-02-23T06:37:51;1.20;;;0.47;;
75634;SDS011;64227;48.724;9.104;2024-02-23T06:40:17;0.63;;;0.35;;
75634;SDS011;64227;48.724;9.104;2024-02-23T06:42:43;1.65;;;0.30;;
75634;SDS011;64227;48.724;9.104;2024-02-23T06:45:08;0.93;;;0.30;;
75634;SDS011;64227;48.724;9.104;2024-02-23T06:47:34;1.60;;;0.32;;
75634;SDS011;64227;48.724;9.104;2024-02-23T06:49:59;1.15;;;0.28;;
75634;SDS011;64227;48.724;9.104;2024-02-23T06:52:25;0.38;;;0.30;;
75634;SDS011;64227;48.724;9.104;2024-02-23T06:54:51;0.45;;;0.20;;
75634;SDS011;64227;48.724;9.104;2024-02-23T06:57:16;4.28;;;0.50;;
75634;SDS011;64227;48.724;9.104;2024-02-23T06:59:42;0.30;;;0.30;;
75634;SDS011;64227;48.724;9.104;2024-02-23T07:02:07;1.00;;;0.40;;
75634;SDS011;64227;48.724;9.104;2024-02-23T07:04:32;1.48;;;0.80;;
75634;SDS011;64227;48.724;9.104;2024-02-23T07:06:58;0.30;;;0.30;;
75634;SDS011;64227;48.724;9.104;2024-02-23T07:09:24;0.88;;;0.32;;
75634;SDS011;64227;48.724;9.104;2024-02-23T07:11:49;1.13;;;0.25;;
75634;SDS011;64227;48.724;9.104;2024-02-23T07:14:14;1.02;;;0.30;;
75634;SDS011;64227;48.724;9.104;2024-02-23T07:16:41;1.85;;;0.40;;
75634;SDS011;64227;48.724;9.104;2024-02-23T07:19:07;0.40;;;0.40;;
75634;SDS011;64227;48.724;9.104;2024-02-23T07:21:33;1.02;;;0.40;;
75634;SDS011;64227;48.724;9.104;2024-02-23T07:23:59;0.43;;;0.38;;
75634;SDS011;64227;48.724;9.104;2024-02-23T07:26:24;0.35;;;0.20;;
75634;SDS011;64227;48.724;9.104;2024-02-23T07:28:50;0.43;;;0.30;;
75634;SDS011;64227;48.724;9.104;2024-02-23T07:31:15;0.30;;;0.30;;
75634;SDS011;64227;48.724;9.104;2024-02-23T07:33:40;3.00;;;0.40;;
75634;SDS011;64227;48.724;9.104;2024-02-23T07:36:07;1.25;;;0.45;;
75634;SDS011;64227;48.724;9.104;2024-02-23T07:38:33;0.60;;;0.30;;
75634;SDS011;64227;48.724;9.104;2024-02-23T07:40:59;0.52;;;0.40;;
75634;SDS011;64227;48.724;9.104;2024-02-23T07:43:24;0.60;;;0.30;;
75634;SDS011;64227;48.724;9.104;2024-02-23T07:45:51;2.08;;;0.60;;
75634;SDS011;64227;48.724;9.104;2024-02-23T07:48:16;1.98;;;0.40;;
75634;SDS011;64227;48.724;9.104;2024-02-23T07:50:41;0.80;;;0.40;;
75634;SDS011;64227;48.724;9.104;2024-02-23T07:53:07;2.88;;;0.32;;
75634;SDS011;64227;48.724;9.104;2024-02-23T07:55:32;2.30;;;0.47;;
75634;SDS011;64227;48.724;9.104;2024-02-23T07:57:58;3.67;;;0.50;;
75634;SDS011;64227;48.724;9.104;2024-02-23T08:00:26;0.50;;;0.20;;
75634;SDS011;64227;48.724;9.104;2024-02-23T08:02:51;0.50;;;0.28;;
75634;SDS011;64227;48.724;9.104;2024-02-23T08:05:17;1.00;;;0.33;;
75634;SDS011;64227;48.724;9.104;2024-02-23T08:07:42;1.70;;;0.30;;
75634;SDS011;64227;48.724;9.104;2024-02-23T08:10:08;1.20;;;0.53;;
75634;SDS011;64227;48.724;9.104;2024-02-23T08:12:34;1.85;;;0.40;;
75634;SDS011;64227;48.724;9.104;2024-02-23T08:14:59;1.45;;;0.60;;
75634;SDS011;64227;48.724;9.104;2024-02-23T08:17:25;1.95;;;0.68;;
75634;SDS011;64227;48.724;9.104;2024-02-23T08:19:50;0.30;;;0.30;;
75634;SDS011;64227;48.724;9.104;2024-02-23T08:22:16;0.95;;;0.40;;
75634;SDS011;64227;48.724;9.104;2024-02-23T08:24:41;0.67;;;0.30;;
75634;SDS011;64227;48.724;9.104;2024-02-23T08:27:06;1.58;;;0.38;;
75634;SDS011;64227;48.724;9.104;2024-02-23T08:29:32;1.95;;;0.57;;
75634;SDS011;64227;48.724;9.104;2024-02-23T08:31:57;2.15;;;0.60;;
75634;SDS011;64227;48.724;9.104;2024-02-23T08:34:22;1.00;;;0.40;;
75634;SDS011;64227;48.724;9.104;2024-02-23T08:36:49;1.05;;;0.40;;
75634;SDS011;64227;48.724;9.104;2024-02-23T08:39:15;1.92;;;0.57;;
75634;SDS011;64227;48.724;9.104;2024-02-23T08:41:40;0.52;;;0.30;;
75634;SDS011;64227;48.724;9.104;2024-02-23T08:44:05;1.02;;;0.40;;
75634;SDS011;64227;48.724;9.104;2024-02-23T08:46:30;1.38;;;0.40;;
75634;SDS011;64227;48.724;9.104;2024-02-23T08:48:56;2.28;;;0.40;;
75634;SDS011;64227;48.724;9.104;2024-02-23T08:51:21;1.27;;;0.40;;
75634;SDS011;64227;48.724;9.104;2024-02-23T08:53:46;1.38;;;0.40;;
75634;SDS011;64227;48.724;9.104;2024-02-23T08:56:12;0.63;;;0.40;;
75634;SDS011;64227;48.724;9.104;2024-02-23T08:58:37;0.63;;;0.30;;
75634;SDS011;64227;48.724;9.104;2024-02-23T09:01:03;1.75;;;0.40;;
75634;SDS011;64227;48.724;9.104;2024-02-23T09:03:29;1.25;;;0.68;;
75634;SDS011;64227;48.724;9.104;2024-02-23T09:05:54;0.52;;;0.50;;
75634;SDS011;64227;48.724;9.104;2024-02-23T09:08:20;0.80;;;0.38;;
75634;SDS011;64227;48.724;9.104;2024-02-23T09:10:45;2.85;;;0.30;;
75634;SDS011;64227;48.724;9.104;2024-02-23T09:13:10;1.48;;;0.22;;
75634;SDS011;64227;48.724;9.104;2024-02-23T09:15:36;4.05;;;0.60;;
75634;SDS011;64227;48.724;9.104;2024-02-23T09:18:01;2.70;;;0.57;;
75634;SDS011;64227;48.724;9.104;2024-02-23T09:20:27;0.90;;;0.50;;
75634;SDS011;64227;48.724;9.104;2024-02-23T09:22:52;1.48;;;0.40;;
75634;SDS011;64227;48.724;9.104;2024-02-23T09:25:18;1.52;;;0.40;;
75634;SDS011;64227;48.724;9.104;2024-02-23T09:27:43;0.95;;;0.40;;
75634;SDS011;64227;48.724;9.104;2024-02-23T09:30:12;1.08;;;0.40;;
75634;SDS011;64227;48.724;9.104;2024-02-23T09:32:38;0.63;;;0.30;;
75634;SDS011;64227;48.724;9.104;2024-02-23T09:35:03;0.93;;;0.50;;
75634;SDS011;64227;48.724;9.104;2024-02-23T09:37:29;0.65;;;0.32;;
75634;SDS011;64227;48.724;9.104;2024-02-23T09:39:54;2.10;;;0.30;;
75634;SDS011;64227;48.724;9.104;2024-02-23T09:42:19;0.50;;;0.30;;
75634;SDS011;64227;48.724;9.104;2024-02-23T09:44:48;1.23;;;0.32;;
75634;SDS011;64227;48.724;9.104;2024-02-23T09:47:22;1.20;;;0.38;;
75634;SDS011;64227;48.724;9.104;2024-02-23T09:49:48;0.75;;;0.43;;
75634;SDS011;64227;48.724;9.104;2024-02-23T09:52:15;1.20;;;0.40;;
75634;SDS011;64227;48.724;9.104;2024-02-23T09:54:41;6.22;;;0.68;;
75634;SDS011;64227;48.724;9.104;2024-02-23T09:57:07;2.70;;;0.70;;
75634;SDS011;64227;48.724;9.104;2024-02-23T09:59:36;2.38;;;0.45;;
75634;SDS011;64227;48.724;9.104;2024-02-23T10:02:03;1.25;;;0.43;;
75634;SDS011;64227;48.724;9.104;2024-02-23T10:04:33;0.73;;;0.30;;
75634;SDS011;64227;48.724;9.104;2024-02-23T10:06:58;1.98;;;0.60;;
75634;SDS011;64227;48.724;9.104;2024-02-23T10:09:24;2.60;;;0.40;;
75634;SDS011;64227;48.724;9.104;2024-02-23T10:11:53;1.42;;;0.80;;
75634;SDS011;64227;48.724;9.104;2024-02-23T10:14:18;3.85;;;0.70;;
75634;SDS011;64227;48.724;9.104;2024-02-23T10:16:44;1.63;;;0.50;;
75634;SDS011;64227;48.724;9.104;2024-02-23T10:19:09;1.55;;;0.32;;
75634;SDS011;64227;48.724;9.104;2024-02-23T10:21:34;1.75;;;0.45;;
75634;SDS011;64227;48.724;9.104;2024-02-23T10:24:00;1.38;;;0.30;;
75634;SDS011;64227;48.724;9.104;2024-02-23T10:26:26;1.65;;;0.40;;
75634;SDS011;64227;48.724;9.104;2024-02-23T10:28:51;1.70;;;0.20;;
75634;SDS011;64227;48.724;9.104;2024-02-23T10:31:17;3.72;;;1.08;;
75634;SDS011;64227;48.724;9.104;2024-02-23T10:33:43;0.68;;;0.30;;
75634;SDS011;64227;48.724;9.104;2024-02-23T10:36:09;2.00;;;0.47;;
75634;SDS011;64227;48.724;9.104;2024-02-23T10:38:37;2.83;;;0.50;;
75634;SDS011;64227;48.724;9.104;2024-02-23T10:41:06;2.15;;;0.40;;
75634;SDS011;64227;48.724;9.104;2024-02-23T10:43:50;1.40;;;0.35;;
75634;SDS011;64227;48.724;9.104;2024-02-23T10:46:17;1.20;;;0.28;;
75634;SDS011;64227;48.724;9.104;2024-02-23T10:48:43;2.60;;;0.75;;
75634;SDS011;64227;48.724;9.104;2024-02-23T10:51:13;1.30;;;0.32;;
75634;SDS011;64227;48.724;9.104;2024-02-23T10:53:39;1.95;;;0.10;;
75634;SDS011;64227;48.724;9.104;2024-02-23T10:56:05;1.35;;;0.32;;
75634;SDS011;64227;48.724;9.104;2024-02-23T10:58:32;2.85;;;0.95;;
75634;SDS011;64227;48.724;9.104;2024-02-23T11:01:00;1.95;;;0.85;;
75634;SDS011;64227;48.724;9.104;2024-02-23T11:03:28;2.92;;;0.43;;
75634;SDS011;64227;48.724;9.104;2024-02-23T11:05:54;1.25;;;0.60;;
75634;SDS011;64227;48.724;9.104;2024-02-23T11:08:20;2.53;;;0.28;;
75634;SDS011;64227;48.724;9.104;2024-02-23T11:10:49;1.63;;;0.40;;
75634;SDS011;64227;48.724;9.104;2024-02-23T11:13:16;2.33;;;0.63;;
75634;SDS011;64227;48.724;9.104;2024-02-23T11:15:42;0.80;;;0.28;;
75634;SDS011;64227;48.724;9.104;2024-02-23T11:18:23;1.70;;;0.38;;
75634;SDS011;64227;48.724;9.104;2024-02-23T11:20:58;3.53;;;0.45;;
75634;SDS011;64227;48.724;9.104;2024-02-23T11:23:25;2.20;;;0.40;;
75634;SDS011;64227;48.724;9.104;2024-02-23T11:28:27;1.52;;;0.22;;
75634;SDS011;64227;48.724;9.104;2024-02-23T11:30:53;1.83;;;0.47;;
75634;SDS011;64227;48.724;9.104;2024-02-23T11:33:28;2.20;;;0.38;;
75634;SDS011;64227;48.724;9.104;2024-02-23T11:39:30;1.77;;;0.28;;
75634;SDS011;64227;48.724;9.104;2024-02-23T11:42:08;2.67;;;0.60;;
75634;SDS011;64227;48.724;9.104;2024-02-23T11:44:34;3.80;;;0.70;;
75634;SDS011;64227;48.724;9.104;2024-02-23T11:47:19;3.42;;;1.25;;
75634;SDS011;64227;48.724;9.104;2024-02-23T11:49:44;4.35;;;0.38;;
75634;SDS011;64227;48.724;9.104;2024-02-23T11:52:13;1.83;;;0.60;;
75634;SDS011;64227;48.724;9.104;2024-02-23T11:54:38;2.40;;;0.85;;
75634;SDS011;64227;48.724;9.104;2024-02-23T11:57:03;1.77;;;0.52;;
75634;SDS011;64227;48.724;9.104;2024-02-23T11:59:29;5.90;;;0.60;;
75634;SDS011;64227;48.724;9.104;2024-02-23T12:21:44;3.58;;;0.80;;
75634;SDS011;64227;48.724;9.104;2024-02-23T12:24:10;3.20;;;0.68;;
75634;SDS011;64227;48.724;9.104;2024-02-23T12:26:37;2.40;;;0.40;;
75634;SDS011;64227;48.724;9.104;2024-02-23T12:29:03;4.35;;;0.68;;
75634;SDS011;64227;48.724;9.104;2024-02-23T12:31:28;4.28;;;0.30;;
75634;SDS011;64227;48.724;9.104;2024-02-23T12:33:54;1.40;;;0.40;;
75634;SDS011;64227;48.724;9.104;2024-02-23T12:36:25;2.90;;;0.73;;
75634;SDS011;64227;48.724;9.104;2024-02-23T12:39:00;1.02;;;0.40;;
75634;SDS011;64227;48.724;9.104;2024-02-23T12:41:33;3.85;;;0.70;;
75634;SDS011;64227;48.724;9.104;2024-02-23T12:44:00;3.60;;;0.55;;
75634;SDS011;64227;48.724;9.104;2024-02-23T12:46:28;5.25;;;0.40;;
75634;SDS011;64227;48.724;9.104;2024-02-23T12:48:53;2.53;;;0.88;;
75634;SDS011;64227;48.724;9.104;2024-02-23T12:51:19;1.65;;;0.47;;
75634;SDS011;64227;48.724;9.104;2024-02-23T12:53:50;1.90;;;0.90;;
75634;SDS011;64227;48.724;9.104;2024-02-23T12:56:15;2.63;;;0.70;;
75634;SDS011;64227;48.724;9.104;2024-02-23T12:58:41;1.55;;;0.60;;
75634;SDS011;64227;48.724;9.104;2024-02-23T13:01:08;1.60;;;0.52;;
75634;SDS011;64227;48.724;9.104;2024-02-23T13:03:34;2.40;;;0.47;;
75634;SDS011;64227;48.724;9.104;2024-02-23T13:05:59;1.00;;;0.47;;
75634;SDS011;64227;48.724;9.104;2024-02-23T13:08:25;1.75;;;0.50;;
75634;SDS011;64227;48.724;9.104;2024-02-23T13:10:51;2.10;;;0.35;;
75634;SDS011;64227;48.724;9.104;2024-02-23T13:13:18;3.70;;;0.60;;
75634;SDS011;64227;48.724;9.104;2024-02-23T13:15:47;1.90;;;0.60;;
75634;SDS011;64227;48.724;9.104;2024-02-23T13:18:13;2.58;;;0.60;;
75634;SDS011;64227;48.724;9.104;2024-02-23T13:20:39;2.42;;;0.75;;
75634;SDS011;64227;48.724;9.104;2024-02-23T13:23:08;1.13;;;0.40;;
75634;SDS011;64227;48.724;9.104;2024-02-23T13:25:35;4.55;;;0.60;;
75634;SDS011;64227;48.724;9.104;2024-02-23T13:28:01;0.85;;;0.40;;
75634;SDS011;64227;48.724;9.104;2024-02-23T13:30:26;0.95;;;0.30;;
75634;SDS011;64227;48.724;9.104;2024-02-23T13:32:52;2.00;;;0.75;;
75634;SDS011;64227;48.724;9.104;2024-02-23T13:35:17;0.93;;;0.30;;
75634;SDS011;64227;48.724;9.104;2024-02-23T13:37:43;1.20;;;0.40;;
75634;SDS011;64227;48.724;9.104;2024-02-23T13:40:09;0.95;;;0.35;;
75634;SDS011;64227;48.724;9.104;2024-02-23T13:42:35;3.10;;;0.88;;
75634;SDS011;64227;48.724;9.104;2024-02-23T13:45:03;0.70;;;0.28;;
75634;SDS011;64227;48.724;9.104;2024-02-23T13:47:28;0.77;;;0.30;;
75634;SDS011;64227;48.724;9.104;2024-02-23T13:49:54;1.13;;;0.43;;
75634;SDS011;64227;48.724;9.104;2024-02-23T13:52:19;2.45;;;0.52;;
75634;SDS011;64227;48.724;9.104;2024-02-23T13:54:44;2.47;;;0.55;;
75634;SDS011;64227;48.724;9.104;2024-02-23T13:57:09;2.25;;;0.57;;
75634;SDS011;64227;48.724;9.104;2024-02-23T13:59:36;5.03;;;0.85;;
75634;SDS011;64227;48.724;9.104;2024-02-23T14:02:01;0.98;;;0.70;;
75634;SDS011;64227;48.724;9.104;2024-02-23T14:04:26;2.38;;;0.70;;
75634;SDS011;64227;48.724;9.104;2024-02-23T14:06:53;2.60;;;0.50;;
75634;SDS011;64227;48.724;9.104;2024-02-23T14:09:18;3.42;;;0.70;;
75634;SDS011;64227;48.724;9.104;2024-02-23T14:11:43;1.75;;;0.77;;
75634;SDS011;64227;48.724;9.104;2024-02-23T14:14:10;1.80;;;0.30;;
75634;SDS011;64227;48.724;9.104;2024-02-23T14:16:35;1.20;;;0.40;;
75634;SDS011;64227;48.724;9.104;2024-02-23T14:19:00;3.33;;;0.70;;
75634;SDS011;64227;48.724;9.104;2024-02-23T14:21:26;1.80;;;0.60;;
75634;SDS011;64227;48.724;9.104;2024-02-23T14:23:51;2.08;;;0.52;;
75634;SDS011;64227;48.724;9.104;2024-02-23T14:26:17;1.75;;;0.60;;
75634;SDS011;64227;48.724;9.104;2024-02-23T14:28:42;1.25;;;0.70;;
75634;SDS011;64227;48.724;9.104;2024-02-23T14:31:07;3.42;;;0.68;;
75634;SDS011;64227;48.724;9.104;2024-02-23T14:33:33;1.52;;;0.65;;
75634;SDS011;64227;48.724;9.104;2024-02-23T14:35:58;3.90;;;0.95;;
75634;SDS011;64227;48.724;9.104;2024-02-23T14:38:23;1.55;;;0.43;;
75634;SDS011;64227;48.724;9.104;2024-02-23T14:40:49;4.55;;;0.70;;
75634;SDS011;64227;48.724;9.104;2024-02-23T14:43:15;4.05;;;1.17;;
75634;SDS011;64227;48.724;9.104;2024-02-23T14:45:40;2.75;;;1.00;;
75634;SDS011;64227;48.724;9.104;2024-02-23T14:48:06;3.63;;;1.00;;
75634;SDS011;64227;48.724;9.104;2024-02-23T14:50:31;3.28;;;0.63;;
75634;SDS011;64227;48.724;9.104;2024-02-23T14:52:57;3.35;;;0.73;;
75634;SDS011;64227;48.724;9.104;2024-02-23T14:55:22;2.70;;;0.95;;
75634;SDS011;64227;48.724;9.104;2024-02-23T14:57:47;3.40;;;0.75;;
75634;SDS011;64227;48.724;9.104;2024-02-23T15:00:13;1.75;;;0.43;;
75634;SDS011;64227;48.724;9.104;2024-02-23T15:02:38;3.00;;;0.40;;
75634;SDS011;64227;48.724;9.104;2024-02-23T15:05:04;4.88;;;0.80;;
75634;SDS011;64227;48.724;9.104;2024-02-23T15:07:34;1.98;;;0.30;;